Shoal Lake, Canada
Current Conditions -  °F | °C
As of 12:33 PM on Saturday 20 Dec 2014 (Local Time) from CYBR Reporting Station
Overcast Overcast  
Wind Chill: 16°   Ceiling: 700
Heat Index: 25°   Visibility: 10mi
Dew Point: 23°   Wind: 8mph
Humidity: 93%   Direction: 160°SSE
Pressure: 29.89"   Gusts: NA
Location:  50.43°N, 100.58°W
Report Text: CYBR 201833Z 16007KT 10SM OVC007 M04/M05 A2989 RMK ST8 SLP149
Loading
Personal Weather Stations






























Interactive Weather Map New forecast layout! Learn more

10-Day Weather Forecast

Advertisements
Track Severe Weather on mobile